Time;durP1;ratioP1;P1;durP2;ratioP2;P2;SDS_P1;SDS_P2;PMS_P1;PMS_P2;Temp;Humidity;BMP_temperature;BMP_pressure;BME280_temperature;BME280_humidity;BME280_pressure;Samples;Min_cycle;Max_cycle;Signal;HPM_P1;HPM_P2
2023/08/08 00:02:05;;;;;;;9.10;4.05;;;;;;;14.24;94.01;100817.81;6315044;22;20055;-81
2023/08/08 00:04:33;;;;;;;7.88;4.07;;;;;;;14.21;94.00;100812.91;6312412;22;20034;-82
2023/08/08 00:07:00;;;;;;;8.30;4.10;;;;;;;14.18;93.84;100811.44;6315193;22;20023;-82
2023/08/08 00:09:26;;;;;;;7.10;3.97;;;;;;;14.13;93.84;100802.47;6317055;22;20027;-81
2023/08/08 00:11:53;;;;;;;6.47;3.95;;;;;;;14.16;94.01;100818.72;6318446;22;20023;-82
2023/08/08 00:14:20;;;;;;;7.00;3.88;;;;;;;14.13;93.93;100812.97;6319310;22;20049;-81
2023/08/08 00:16:48;;;;;;;6.63;4.13;;;;;;;14.11;93.75;100801.81;6320767;22;20027;-80
2023/08/08 00:19:14;;;;;;;7.50;4.00;;;;;;;14.00;93.83;100802.22;6320840;22;20019;-80
2023/08/08 00:21:41;;;;;;;6.95;4.20;;;;;;;14.01;93.93;100804.66;6320817;22;20022;-79
2023/08/08 00:24:07;;;;;;;8.27;5.22;;;;;;;13.99;93.91;100804.03;6325127;22;20034;-81
2023/08/08 00:26:34;;;;;;;8.10;4.45;;;;;;;13.92;94.23;100800.44;6315494;22;20058;-81
2023/08/08 00:29:01;;;;;;;11.20;4.53;;;;;;;13.94;94.12;100795.81;6316456;22;20019;-81
2023/08/08 00:31:27;;;;;;;5.53;3.88;;;;;;;13.90;94.09;100784.00;6315228;22;20049;-79
2023/08/08 00:33:56;;;;;;;8.70;4.60;;;;;;;13.84;94.03;100789.97;6314432;22;20019;-80
2023/08/08 00:36:22;;;;;;;7.60;4.47;;;;;;;13.89;94.05;100798.16;6314020;22;20412;-80
2023/08/08 00:38:49;;;;;;;11.52;4.45;;;;;;;13.81;94.18;100796.38;6314209;22;20023;-79
2023/08/08 00:41:16;;;;;;;9.77;4.45;;;;;;;13.80;94.32;100801.81;6313626;22;20061;-80
2023/08/08 00:43:43;;;;;;;9.43;4.60;;;;;;;13.79;94.29;100800.19;6313339;22;20106;-80
2023/08/08 00:46:10;;;;;;;5.75;4.20;;;;;;;13.79;94.31;100806.25;6313426;22;20027;-80
2023/08/08 00:48:37;;;;;;;6.05;4.40;;;;;;;13.73;94.45;100790.34;6314887;22;20534;-81
2023/08/08 00:51:05;;;;;;;9.18;5.15;;;;;;;13.75;94.77;100801.50;6314193;22;20347;-81
2023/08/08 00:53:32;;;;;;;7.45;4.53;;;;;;;13.70;94.69;100793.34;6314023;22;20088;-82
2023/08/08 00:55:59;;;;;;;8.55;4.30;;;;;;;13.64;94.71;100783.50;6314286;22;20023;-80
2023/08/08 00:58:26;;;;;;;7.30;4.80;;;;;;;13.63;94.79;100792.38;6314142;22;20015;-80
2023/08/08 01:00:56;;;;;;;6.43;4.57;;;;;;;13.67;94.70;100791.06;6315063;22;20023;-81
2023/08/08 01:03:23;;;;;;;7.45;4.35;;;;;;;13.60;94.72;100778.59;6314393;22;20097;-81
2023/08/08 01:06:02;;;;;;;6.78;4.47;;;;;;;13.60;94.97;100794.38;6314275;22;20528;-79
2023/08/08 01:08:39;;;;;;;11.68;4.80;;;;;;;13.60;95.32;100799.63;6315188;22;20055;-80
2023/08/08 01:11:06;;;;;;;6.30;4.90;;;;;;;13.55;95.40;100790.63;6316383;22;20023;-80
2023/08/08 01:13:34;;;;;;;7.20;4.32;;;;;;;13.55;95.54;100796.69;6317157;22;20049;-80
2023/08/08 01:16:04;;;;;;;9.18;4.35;;;;;;;13.61;95.63;100814.41;6321066;22;20022;-81
2023/08/08 01:18:33;;;;;;;8.05;4.60;;;;;;;13.64;95.47;100788.78;6319828;22;20058;-81
2023/08/08 01:21:00;;;;;;;5.80;4.38;;;;;;;13.65;95.54;100801.75;6316890;22;20026;-80
2023/08/08 01:23:35;;;;;;;9.55;5.10;;;;;;;13.65;95.42;100801.75;6316907;22;20034;-80
2023/08/08 01:26:03;;;;;;;7.70;4.32;;;;;;;13.62;95.62;100794.19;6300651;22;20008;-81
2023/08/08 01:28:30;;;;;;;11.45;5.38;;;;;;;13.63;95.76;100797.66;6299598;22;20030;-81
2023/08/08 01:30:57;;;;;;;9.27;4.78;;;;;;;13.66;95.67;100802.56;6292001;22;20027;-80
2023/08/08 01:33:23;;;;;;;7.72;4.80;;;;;;;13.67;95.70;100798.94;6285284;22;20333;-79
2023/08/08 01:35:55;;;;;;;9.55;5.28;;;;;;;13.71;95.80;100795.78;6284957;22;20020;-79
2023/08/08 01:38:26;;;;;;;9.32;5.18;;;;;;;13.64;95.78;100794.03;6284790;22;20020;-82
2023/08/08 01:40:57;;;;;;;9.18;5.00;;;;;;;13.57;96.34;100788.63;6290277;22;20050;-81
2023/08/08 01:43:26;;;;;;;7.68;4.78;;;;;;;13.56;96.69;100787.81;6299432;22;20034;-81
2023/08/08 01:45:53;;;;;;;9.25;5.05;;;;;;;13.52;97.08;100796.22;6293225;22;20066;-81
2023/08/08 01:48:20;;;;;;;8.32;5.35;;;;;;;13.43;97.40;100790.16;6291577;22;20050;-80
2023/08/08 01:50:47;;;;;;;9.68;4.90;;;;;;;13.41;97.77;100789.50;6293317;22;20028;-81
2023/08/08 01:53:13;;;;;;;7.95;5.10;;;;;;;13.38;97.86;100797.75;6293171;22;20030;-81
2023/08/08 01:55:40;;;;;;;11.35;5.25;;;;;;;13.33;97.96;100778.22;6289445;22;20019;-79
2023/08/08 01:58:07;;;;;;;8.25;5.30;;;;;;;13.40;97.99;100797.56;6285803;22;20034;-79
2023/08/08 02:00:36;;;;;;;7.38;4.65;;;;;;;13.40;98.08;100798.38;6281425;22;20061;-79
2023/08/08 02:03:03;;;;;;;9.05;5.20;;;;;;;13.28;98.38;100791.84;6283238;22;20019;-79
2023/08/08 02:05:30;;;;;;;9.95;5.07;;;;;;;13.28;98.68;100790.03;6287263;22;20031;-76
2023/08/08 02:07:57;;;;;;;7.60;5.10;;;;;;;13.24;99.02;100795.81;6284192;22;20027;-79
2023/08/08 02:10:23;;;;;;;9.65;5.30;;;;;;;13.23;99.07;100797.63;6281675;22;20024;-76
2023/08/08 02:12:50;;;;;;;10.13;5.30;;;;;;;13.18;99.46;100804.41;6277025;22;20539;-77
2023/08/08 02:15:16;;;;;;;10.77;5.35;;;;;;;13.18;99.75;100794.69;6275933;22;20058;-79
2023/08/08 02:17:47;;;;;;;9.80;5.45;;;;;;;13.20;100.00;100791.91;6280207;22;20043;-78
2023/08/08 02:20:13;;;;;;;13.82;5.70;;;;;;;13.20;100.00;100787.47;6280477;22;20039;-78
2023/08/08 02:22:40;;;;;;;9.68;5.28;;;;;;;13.21;100.00;100773.34;6279497;22;20074;-79
2023/08/08 02:25:07;;;;;;;7.60;4.82;;;;;;;13.22;99.86;100776.78;6279221;22;20027;-79
2023/08/08 02:27:34;;;;;;;9.48;5.50;;;;;;;13.22;99.69;100763.66;6278388;22;20093;-78
2023/08/08 02:30:00;;;;;;;9.27;4.68;;;;;;;13.20;99.67;100774.34;6279027;22;20027;-78
2023/08/08 02:32:27;;;;;;;9.60;5.55;;;;;;;13.19;99.54;100758.75;6279401;22;20081;-78
2023/08/08 02:34:55;;;;;;;7.53;5.00;;;;;;;13.19;99.39;100759.56;6278272;22;20047;-79
2023/08/08 02:37:21;;;;;;;5.40;4.47;;;;;;;13.19;99.34;100751.69;6277603;22;20019;-79
2023/08/08 02:39:48;;;;;;;10.35;4.68;;;;;;;13.20;99.46;100750.69;6277986;22;20024;-79
2023/08/08 02:42:15;;;;;;;9.23;4.72;;;;;;;13.16;99.20;100745.94;6277970;22;20030;-80
2023/08/08 02:44:41;;;;;;;8.15;4.47;;;;;;;13.15;99.33;100736.38;6277499;22;20062;-79
2023/08/08 02:47:08;;;;;;;6.72;4.55;;;;;;;13.14;99.37;100745.25;6277583;22;20091;-79
2023/08/08 02:49:34;;;;;;;9.70;4.90;;;;;;;13.15;99.32;100741.63;6279219;22;20387;-79
2023/08/08 02:52:02;;;;;;;8.40;4.75;;;;;;;13.13;99.45;100739.19;6280520;22;20061;-80
2023/08/08 02:54:29;;;;;;;8.40;4.88;;;;;;;13.08;99.58;100740.69;6281078;22;20027;-80
2023/08/08 02:56:56;;;;;;;10.75;4.45;;;;;;;13.09;99.42;100737.06;6277492;22;20046;-80
2023/08/08 02:59:22;;;;;;;11.70;4.97;;;;;;;13.06;99.46;100738.22;6278968;22;20353;-79
2023/08/08 03:01:49;;;;;;;11.05;4.90;;;;;;;13.04;99.75;100744.63;6277961;22;20062;-79
2023/08/08 03:04:16;;;;;;;7.38;4.95;;;;;;;12.99;99.82;100731.19;6278225;22;20125;-79
2023/08/08 03:06:42;;;;;;;11.50;5.10;;;;;;;12.95;100.00;100738.56;6279261;22;20067;-78
2023/08/08 03:09:10;;;;;;;10.50;4.70;;;;;;;12.98;100.00;100740.03;6277094;22;20134;-79
2023/08/08 03:11:37;;;;;;;10.90;4.90;;;;;;;12.90;100.00;100733.81;6275708;22;20045;-79
2023/08/08 03:14:04;;;;;;;10.93;5.13;;;;;;;12.91;100.00;100734.66;6276463;22;20027;-81
2023/08/08 03:16:30;;;;;;;10.15;5.82;;;;;;;12.92;100.00;100737.09;6280426;22;20393;-79
2023/08/08 03:18:57;;;;;;;9.85;4.90;;;;;;;12.98;100.00;100734.78;6283177;22;20023;-77
2023/08/08 03:21:23;;;;;;;7.82;4.88;;;;;;;12.93;100.00;100733.50;6281775;22;20364;-79
2023/08/08 03:23:50;;;;;;;10.10;4.75;;;;;;;12.94;100.00;100735.13;6281045;22;20054;-77
2023/08/08 03:26:18;;;;;;;13.30;4.90;;;;;;;12.92;100.00;100737.09;6279834;22;20554;-80
2023/08/08 03:28:44;;;;;;;7.60;4.90;;;;;;;12.90;100.00;100733.81;6278657;22;20094;-80
2023/08/08 03:31:11;;;;;;;13.52;5.22;;;;;;;12.88;100.00;100733.16;6278522;22;20023;-80
2023/08/08 03:33:38;;;;;;;10.98;4.72;;;;;;;12.87;100.00;100743.84;6277470;22;20058;-79
2023/08/08 03:36:05;;;;;;;14.32;5.15;;;;;;;12.87;100.00;100739.41;6277803;22;20498;-78
2023/08/08 03:38:31;;;;;;;10.27;4.72;;;;;;;12.84;100.00;100729.25;6276286;22;20483;-79
2023/08/08 03:40:58;;;;;;;8.88;5.00;;;;;;;12.89;100.00;100741.88;6276044;22;20094;-78
2023/08/08 03:43:26;;;;;;;9.27;5.03;;;;;;;12.91;100.00;100732.84;6275166;22;20099;-80
2023/08/08 03:45:52;;;;;;;9.27;5.07;;;;;;;12.85;100.00;100730.88;6277853;22;20139;-77
2023/08/08 03:48:19;;;;;;;9.88;4.90;;;;;;;12.82;100.00;100733.84;6278313;22;20074;-80
2023/08/08 03:50:46;;;;;;;13.00;4.78;;;;;;;12.75;100.00;100726.81;6278051;22;20412;-76
2023/08/08 03:53:13;;;;;;;11.40;4.78;;;;;;;12.79;100.00;100736.81;6278109;22;20028;-79
2023/08/08 03:55:39;;;;;;;9.98;4.65;;;;;;;12.76;100.00;100726.63;6278077;22;20043;-78
2023/08/08 03:58:06;;;;;;;10.48;4.88;;;;;;;12.76;100.00;100731.09;6277252;22;20107;-78
2023/08/08 04:00:34;;;;;;;13.27;4.90;;;;;;;12.77;100.00;100730.91;6279552;22;20024;-81
2023/08/08 04:03:01;;;;;;;12.93;5.45;;;;;;;12.79;100.00;100731.53;6281176;22;20030;-79
2023/08/08 04:05:28;;;;;;;12.70;5.13;;;;;;;12.81;100.00;100734.81;6279980;22;20039;-79
2023/08/08 04:07:54;;;;;;;10.02;5.57;;;;;;;12.82;100.00;100740.91;6280975;22;20111;-79
2023/08/08 04:10:21;;;;;;;11.88;5.65;;;;;;;12.84;100.00;100749.44;6281905;22;20020;-81
2023/08/08 04:12:47;;;;;;;15.07;5.65;;;;;;;12.85;100.00;100748.44;6281609;22;20024;-79
2023/08/08 04:15:14;;;;;;;9.85;5.50;;;;;;;12.85;100.00;100759.75;6280672;22;20077;-76
2023/08/08 04:17:42;;;;;;;12.60;5.55;;;;;;;12.89;100.00;100757.63;6277472;22;20398;-80
2023/08/08 04:20:09;;;;;;;10.95;5.40;;;;;;;12.85;100.00;100749.25;6282885;22;20055;-80
2023/08/08 04:22:36;;;;;;;6.60;4.82;;;;;;;12.86;100.00;100761.41;6284658;22;20030;-80
2023/08/08 04:25:04;;;;;;;13.13;5.50;;;;;;;12.85;100.00;100761.56;6283747;22;20513;-79
2023/08/08 04:27:31;;;;;;;9.45;5.15;;;;;;;12.84;100.00;100749.44;6284414;22;20058;-80
2023/08/08 04:29:57;;;;;;;12.40;5.72;;;;;;;12.82;100.00;100752.22;6284455;22;20038;-78
2023/08/08 04:32:24;;;;;;;15.73;6.13;;;;;;;12.84;100.00;100738.94;6283459;22;20024;-80
2023/08/08 04:34:52;;;;;;;8.80;5.53;;;;;;;12.86;100.00;100753.53;6283496;22;20058;-81
2023/08/08 04:37:18;;;;;;;7.70;5.03;;;;;;;12.84;100.00;100738.94;6283250;22;20133;-80
2023/08/08 04:39:45;;;;;;;7.78;5.28;;;;;;;12.86;100.00;100750.91;6282670;22;20024;-80
2023/08/08 04:42:11;;;;;;;11.02;5.50;;;;;;;12.91;100.00;100742.53;6276454;22;20055;-81
2023/08/08 04:44:38;;;;;;;11.50;5.70;;;;;;;12.99;100.00;100752.19;6280807;22;20054;-81
2023/08/08 04:47:05;;;;;;;12.35;5.75;;;;;;;13.14;100.00;100755.75;6280502;22;20112;-80
2023/08/08 04:49:32;;;;;;;16.55;6.35;;;;;;;13.22;100.00;100759.22;6279581;22;20099;-81
2023/08/08 04:52:00;;;;;;;12.38;5.32;;;;;;;13.33;100.00;100752.75;6280369;22;20051;-80
2023/08/08 04:54:26;;;;;;;11.40;5.93;;;;;;;13.38;100.00;100755.69;6280203;22;20043;-81
2023/08/08 04:56:53;;;;;;;13.73;6.25;;;;;;;13.53;100.00;100759.25;6280577;22;20102;-81
2023/08/08 04:59:20;;;;;;;11.30;5.88;;;;;;;13.64;100.00;100746.69;6278743;22;20094;-81
2023/08/08 05:01:46;;;;;;;14.45;6.32;;;;;;;13.72;100.00;100744.00;6282326;22;20023;-82
2023/08/08 05:04:13;;;;;;;12.52;5.82;;;;;;;13.77;100.00;100745.13;6278223;22;20051;-82
2023/08/08 05:06:39;;;;;;;12.45;6.28;;;;;;;13.77;100.00;100744.28;6277753;22;20359;-81
2023/08/08 05:09:09;;;;;;;11.93;6.10;;;;;;;13.82;100.00;100752.50;6282166;22;20055;-81
2023/08/08 05:11:35;;;;;;;15.90;6.85;;;;;;;13.83;100.00;100741.78;6282041;22;20024;-79
2023/08/08 05:14:02;;;;;;;11.82;6.00;;;;;;;13.94;100.00;100743.22;6281951;22;20023;-82
2023/08/08 05:16:29;;;;;;;12.88;6.03;;;;;;;14.03;100.00;100736.91;6280901;22;20317;-80
2023/08/08 05:18:55;;;;;;;10.35;6.40;;;;;;;14.18;100.00;100735.13;6281528;22;20058;-81
2023/08/08 05:21:22;;;;;;;14.25;6.63;;;;;;;14.25;100.00;100719.44;6280785;22;20043;-80
2023/08/08 05:23:49;;;;;;;15.02;6.80;;;;;;;14.21;100.00;100733.94;6281458;22;20027;-83
2023/08/08 05:26:18;;;;;;;10.50;6.60;;;;;;;14.42;100.00;100717.53;6283383;22;20467;-80
2023/08/08 05:28:45;;;;;;;13.55;7.32;;;;;;;14.43;100.00;100722.63;6280377;22;20015;-80
2023/08/08 05:31:11;;;;;;;17.52;6.68;;;;;;;14.47;100.00;100708.09;6278318;22;20031;-82
2023/08/08 05:33:38;;;;;;;14.07;6.15;;;;;;;14.81;99.85;100725.19;6279962;22;20106;-77
2023/08/08 05:36:05;;;;;;;10.40;5.85;;;;;;;14.80;98.81;100713.03;6278104;22;20070;-82
2023/08/08 05:38:32;;;;;;;13.35;6.90;;;;;;;14.99;98.16;100712.47;6277201;22;20054;-81
2023/08/08 05:40:58;;;;;;;11.20;6.10;;;;;;;15.23;96.75;100709.53;6278969;22;20042;-77
2023/08/08 05:43:27;;;;;;;12.82;6.03;;;;;;;15.34;96.13;100702.97;6279425;22;20054;-80
2023/08/08 05:45:54;;;;;;;17.65;5.65;;;;;;;15.91;93.92;100691.63;6280101;22;20352;-80
2023/08/08 05:48:20;;;;;;;12.95;5.45;;;;;;;16.17;92.23;100681.28;6281317;22;20032;-82
2023/08/08 05:50:47;;;;;;;10.80;5.43;;;;;;;16.78;89.31;100689.44;6281840;22;20047;-80
2023/08/08 05:53:13;;;;;;;13.98;5.60;;;;;;;16.46;89.27;100690.84;6286297;22;20337;-82
2023/08/08 05:55:41;;;;;;;11.30;5.60;;;;;;;16.50;89.38;100696.56;6283437;22;20043;-80
2023/08/08 05:58:12;;;;;;;12.85;5.80;;;;;;;16.44;89.90;100702.63;6285348;22;20027;-80
2023/08/08 06:00:42;;;;;;;12.45;5.65;;;;;;;16.56;89.46;100695.75;6282577;22;20428;-78
2023/08/08 06:03:09;;;;;;;15.50;6.07;;;;;;;16.53;89.57;100697.00;6279155;22;20024;-80
2023/08/08 06:05:35;;;;;;;15.07;5.85;;;;;;;16.15;89.67;100696.50;6280745;22;20019;-82
2023/08/08 06:08:04;;;;;;;11.32;5.30;;;;;;;16.93;88.90;100702.53;6280479;22;20115;-83
2023/08/08 06:10:31;;;;;;;10.02;5.18;;;;;;;17.65;86.14;100696.72;6280881;22;20086;-83
2023/08/08 06:12:57;;;;;;;17.73;6.30;;;;;;;18.36;82.66;100682.91;6280323;22;20028;-82
2023/08/08 06:15:24;;;;;;;9.23;4.32;;;;;;;19.02;80.43;100688.06;6279996;22;20023;-84
2023/08/08 06:17:52;;;;;;;10.07;4.55;;;;;;;19.38;78.07;100683.00;6278696;22;20024;-82
2023/08/08 06:20:19;;;;;;;9.90;4.95;;;;;;;18.98;78.44;100697.47;6279735;22;20065;-79
2023/08/08 06:22:46;;;;;;;13.52;4.63;;;;;;;19.14;77.82;100694.34;6280413;22;20026;-80
2023/08/08 06:25:13;;;;;;;11.52;5.18;;;;;;;19.30;77.02;100688.56;6279659;22;20447;-81
2023/08/08 06:27:39;;;;;;;13.45;4.53;;;;;;;19.52;76.80;100700.50;6280358;22;20351;-82
2023/08/08 06:30:08;;;;;;;17.55;4.63;;;;;;;19.36;76.29;100694.88;6277264;22;20085;-81
2023/08/08 06:32:35;;;;;;;15.55;5.22;;;;;;;19.76;75.92;100700.78;6277566;22;20098;-80
2023/08/08 06:35:03;;;;;;;12.82;4.45;;;;;;;18.66;78.05;100705.31;6277614;22;20058;-80
2023/08/08 06:37:30;;;;;;;9.73;3.95;;;;;;;18.29;79.02;100717.34;6279637;22;20020;-80
2023/08/08 06:39:56;;;;;;;11.95;4.50;;;;;;;17.85;81.28;100723.22;6279082;22;20035;-80
2023/08/08 06:42:23;;;;;;;11.45;4.88;;;;;;;17.07;83.34;100728.00;6278491;22;20055;-80
2023/08/08 06:44:49;;;;;;;14.35;5.43;;;;;;;16.98;85.01;100731.03;6279399;22;20491;-78
2023/08/08 06:47:16;;;;;;;11.77;5.05;;;;;;;17.17;85.25;100732.94;6274870;22;20074;-79
2023/08/08 06:49:42;;;;;;;8.35;4.70;;;;;;;17.38;84.49;100729.38;6278049;22;20099;-81
2023/08/08 06:52:10;;;;;;;12.60;5.10;;;;;;;17.27;84.93;100732.59;6278361;22;20099;-81
2023/08/08 06:54:37;;;;;;;9.05;4.97;;;;;;;17.10;85.32;100729.44;6278705;22;20047;-78
2023/08/08 06:57:04;;;;;;;9.85;5.05;;;;;;;16.88;86.19;100734.84;6276958;22;20047;-80
2023/08/08 06:59:30;;;;;;;12.02;5.60;;;;;;;16.85;86.64;100737.88;6279315;22;20023;-82
2023/08/08 07:01:57;;;;;;;11.73;5.25;;;;;;;16.66;87.12;100730.63;6279101;22;20023;-80
2023/08/08 07:04:24;;;;;;;13.18;4.93;;;;;;;16.74;87.62;100730.47;6275681;22;20026;-78
2023/08/08 07:06:50;;;;;;;11.35;5.15;;;;;;;16.66;87.58;100727.97;6277643;22;20405;-78
2023/08/08 07:09:18;;;;;;;9.63;4.85;;;;;;;16.82;87.15;100722.41;6279051;22;20098;-78
2023/08/08 07:11:45;;;;;;;7.45;4.95;;;;;;;17.43;85.73;100724.31;6282723;22;20019;-79
2023/08/08 07:14:12;;;;;;;15.50;5.50;;;;;;;17.18;85.32;100713.41;6280228;22;20058;-81
2023/08/08 07:16:39;;;;;;;12.55;5.50;;;;;;;16.82;86.08;100722.41;6284502;22;20027;-81
2023/08/08 07:19:05;;;;;;;14.02;4.93;;;;;;;16.84;87.00;100714.28;6283495;22;20472;-79
2023/08/08 07:21:32;;;;;;;10.48;5.25;;;;;;;16.83;87.27;100729.31;6285090;22;20256;-81
2023/08/08 07:23:59;;;;;;;11.73;5.40;;;;;;;16.73;88.16;100726.19;6285676;22;20012;-81
2023/08/08 07:26:27;;;;;;;11.75;5.25;;;;;;;16.61;88.37;100714.50;6288006;22;20016;-81
2023/08/08 07:28:54;;;;;;;11.60;5.57;;;;;;;16.62;89.02;100729.34;6293575;22;20031;-81
2023/08/08 07:31:21;;;;;;;15.75;5.50;;;;;;;16.55;89.56;100720.56;6285853;22;20023;-80
2023/08/08 07:33:47;;;;;;;16.83;5.20;;;;;;;16.42;89.83;100731.03;6286784;22;20349;-82
2023/08/08 07:36:14;;;;;;;9.38;5.22;;;;;;;16.24;90.14;100718.28;6287116;22;20035;-81
2023/08/08 07:38:41;;;;;;;9.23;5.40;;;;;;;16.07;90.45;100728.28;6287410;22;20023;-81
2023/08/08 07:41:07;;;;;;;11.88;5.13;;;;;;;16.15;90.78;100722.88;6286776;22;20117;-81
2023/08/08 07:43:35;;;;;;;19.90;6.43;;;;;;;16.38;90.93;100722.69;6286691;22;20023;-82
2023/08/08 07:46:02;;;;;;;14.88;6.45;;;;;;;16.49;90.29;100710.78;6284547;22;20039;-80
2023/08/08 07:48:28;;;;;;;14.80;5.43;;;;;;;16.59;89.60;100703.31;6288185;22;20055;-82
2023/08/08 07:50:55;;;;;;;9.13;5.82;;;;;;;16.95;89.25;100710.28;6285737;22;20032;-80
2023/08/08 07:53:22;;;;;;;12.00;5.50;;;;;;;17.11;88.38;100712.56;6284209;22;20023;-81
2023/08/08 07:58:25;;;;;;;;;;;;;;;17.33;86.30;100700.06;6287882;22;20020;-82
2023/08/08 08:01:16;;;;;;;11.48;5.90;;;;;;;17.35;86.96;100706.78;6285044;22;19919;-80
2023/08/08 08:03:47;;;;;;;11.20;5.80;;;;;;;17.19;86.93;100712.41;6274382;22;20019;-80
2023/08/08 08:06:20;;;;;;;11.90;6.22;;;;;;;17.22;87.16;100718.13;6285041;22;20044;-79
2023/08/08 08:08:51;;;;;;;13.60;6.00;;;;;;;17.08;87.34;100695.28;6284452;22;20043;-81
2023/08/08 08:11:18;;;;;;;16.83;6.13;;;;;;;17.15;88.15;100722.56;6283486;22;20035;-80
2023/08/08 08:13:50;;;;;;;15.95;6.70;;;;;;;17.15;88.31;100716.47;6282482;22;20020;-81
2023/08/08 08:16:28;;;;;;;16.13;6.95;;;;;;;16.90;88.48;100709.03;6282924;22;20031;-81
2023/08/08 08:18:55;;;;;;;14.35;7.28;;;;;;;16.56;89.84;100701.06;6280740;22;20082;-81
2023/08/08 08:21:22;;;;;;;9.88;6.90;;;;;;;16.36;90.48;100694.84;6281552;22;20015;-80
2023/08/08 08:23:49;;;;;;;13.82;7.80;;;;;;;16.44;90.49;100708.72;6282244;22;20027;-82
2023/08/08 08:26:16;;;;;;;12.43;6.93;;;;;;;16.34;91.58;100686.28;6279160;22;20020;-81
2023/08/08 08:28:55;;;;;;;14.18;7.55;;;;;;;16.36;91.66;100708.03;6283398;22;20086;-79
2023/08/08 08:31:23;;;;;;;16.85;7.40;;;;;;;16.40;92.14;100717.22;6287393;22;20054;-81
2023/08/08 08:33:51;;;;;;;15.98;8.20;;;;;;;16.40;92.37;100710.09;6282581;22;20789;-82
2023/08/08 08:36:18;;;;;;;11.68;7.47;;;;;;;16.45;92.00;100710.34;6283861;22;20088;-81
2023/08/08 08:38:46;;;;;;;12.85;7.57;;;;;;;16.53;91.13;100712.03;6283756;22;20019;-83
2023/08/08 08:41:19;;;;;;;20.13;7.70;;;;;;;16.65;91.37;100710.50;6285250;22;20077;-82
2023/08/08 08:43:51;;;;;;;17.60;7.97;;;;;;;16.35;92.18;100701.94;6278862;22;20093;-82
2023/08/08 08:46:29;;;;;;;;;;;;;;;16.47;92.40;100715.44;6283286;22;20019;-81
2023/08/08 08:49:11;;;;;;;17.35;7.82;;;;;;;16.66;90.84;100701.56;6284367;22;20000;-80
2023/08/08 08:51:40;;;;;;;11.82;7.30;;;;;;;16.62;89.76;100689.72;6285410;22;20029;-81
2023/08/08 08:54:07;;;;;;;15.40;6.60;;;;;;;16.74;89.05;100682.91;6284292;22;20744;-80
2023/08/08 08:56:35;;;;;;;12.45;7.20;;;;;;;16.76;88.26;100682.72;6285544;22;20023;-81
2023/08/08 08:59:03;;;;;;;9.77;6.35;;;;;;;16.98;87.65;100697.50;6285367;22;20042;-81
2023/08/08 09:01:30;;;;;;;12.02;6.65;;;;;;;16.75;87.41;100691.66;6284885;22;20019;-81
2023/08/08 09:04:17;;;;;;;13.63;6.65;;;;;;;16.71;87.92;100672.72;6285915;22;20082;-82
2023/08/08 09:06:46;;;;;;;13.95;6.45;;;;;;;16.78;88.20;100676.22;6255740;22;20016;-81
2023/08/08 09:09:15;;;;;;;15.02;7.05;;;;;;;16.83;88.22;100675.66;6281106;22;20337;-81
2023/08/08 09:11:46;;;;;;;12.27;6.60;;;;;;;17.07;87.60;100690.19;6281205;22;20024;-80
2023/08/08 09:14:17;;;;;;;17.83;6.70;;;;;;;17.09;86.92;100688.16;6281428;22;20144;-79
2023/08/08 09:16:46;;;;;;;15.23;6.30;;;;;;;17.10;86.14;100663.34;6287216;22;20027;-80
2023/08/08 09:19:22;;;;;;;10.32;6.40;;;;;;;17.10;85.29;100660.69;6290919;22;20070;-78
2023/08/08 09:21:50;;;;;;;11.57;6.28;;;;;;;17.39;84.69;100681.56;6291646;22;20058;-79
2023/08/08 09:24:17;;;;;;;10.30;6.03;;;;;;;17.44;84.17;100678.34;6287639;22;20020;-79
2023/08/08 09:26:44;;;;;;;10.77;5.78;;;;;;;17.55;84.50;100681.19;6286880;22;20019;-81
2023/08/08 09:29:13;;;;;;;14.43;6.53;;;;;;;17.79;83.89;100679.03;6283683;22;20023;-78
2023/08/08 09:31:40;;;;;;;10.38;5.80;;;;;;;17.97;83.09;100689.81;6287958;22;20030;-81
2023/08/08 09:34:07;;;;;;;14.68;6.38;;;;;;;18.18;82.81;100692.28;6287447;22;20054;-80
2023/08/08 09:36:48;;;;;;;9.75;5.85;;;;;;;18.15;82.76;100679.44;6285878;22;20020;-83
2023/08/08 09:39:32;;;;;;;10.68;5.60;;;;;;;18.02;82.17;100687.38;6284409;22;20019;-80
2023/08/08 09:42:15;;;;;;;14.27;5.97;;;;;;;18.20;80.77;100658.47;6283592;22;20348;-80
2023/08/08 09:44:44;;;;;;;11.00;5.65;;;;;;;18.49;79.71;100678.38;6285456;22;20027;-82
2023/08/08 09:47:38;;;;;;;10.23;5.38;;;;;;;18.68;79.14;100684.72;6282516;22;20019;-81
2023/08/08 09:50:06;;;;;;;9.77;6.00;;;;;;;18.90;78.87;100679.97;6273047;22;20023;-80
2023/08/08 09:52:35;;;;;;;12.30;5.65;;;;;;;18.54;79.52;100680.41;6284856;22;20019;-81
2023/08/08 09:55:03;;;;;;;10.45;5.70;;;;;;;18.36;80.68;100696.16;6288152;22;20024;-81
2023/08/08 09:57:31;;;;;;;8.40;5.18;;;;;;;18.20;80.72;100707.97;6288670;22;20071;-82
2023/08/08 10:00:00;;;;;;;11.02;5.50;;;;;;;17.87;80.40;100702.66;6291323;22;20023;-81
2023/08/08 10:02:27;;;;;;;8.98;5.10;;;;;;;17.82;81.20;100705.09;6287279;22;20020;-79
2023/08/08 10:05:22;;;;;;;8.98;5.53;;;;;;;18.05;81.00;100686.16;6286629;22;20071;-80
2023/08/08 10:07:55;;;;;;;7.82;5.47;;;;;;;18.32;79.86;100660.50;6285313;22;20020;-80
2023/08/08 10:10:25;;;;;;;12.02;5.40;;;;;;;18.57;79.70;100683.47;6291774;22;20019;-81
2023/08/08 10:12:53;;;;;;;13.75;5.97;;;;;;;18.60;78.94;100674.31;6292657;22;20031;-82
2023/08/08 10:15:26;;;;;;;10.55;5.22;;;;;;;18.84;77.60;100673.66;6289978;22;20584;-82
2023/08/08 10:18:00;;;;;;;12.88;5.25;;;;;;;18.90;76.54;100662.19;6284608;22;20031;-80
2023/08/08 10:20:27;;;;;;;12.88;5.40;;;;;;;19.28;75.13;100666.75;6284768;22;20015;-82
2023/08/08 10:22:56;;;;;;;8.55;5.13;;;;;;;19.41;73.99;100666.66;6282512;22;20023;-83
2023/08/08 10:25:26;;;;;;;12.18;5.28;;;;;;;19.92;73.95;100671.03;6283966;22;20075;-82
2023/08/08 10:28:14;;;;;;;11.30;5.10;;;;;;;20.50;71.84;100671.56;6283914;22;20372;-81
2023/08/08 10:30:51;;;;;;;11.98;5.55;;;;;;;19.68;72.13;100653.25;6283417;22;20102;-83
2023/08/08 10:33:18;;;;;;;9.05;5.18;;;;;;;19.42;71.79;100641.75;6286380;22;20028;-80
2023/08/08 10:36:00;;;;;;;9.90;4.40;;;;;;;18.95;73.49;100668.69;6289245;22;20031;-81
2023/08/08 10:38:44;;;;;;;10.63;4.80;;;;;;;18.93;75.24;100678.72;6288273;22;20019;-82
2023/08/08 10:41:12;;;;;;;12.00;5.00;;;;;;;18.70;75.84;100668.59;6288720;22;20024;-82
2023/08/08 10:43:50;;;;;;;9.07;4.82;;;;;;;18.19;75.87;100685.97;6289197;22;20050;-81
2023/08/08 10:46:26;;;;;;;9.85;4.13;;;;;;;17.98;76.98;100682.69;6289224;22;20416;-81
2023/08/08 10:49:04;;;;;;;9.57;4.78;;;;;;;17.79;78.08;100668.44;6289788;22;20027;-82
2023/08/08 10:51:37;;;;;;;8.93;4.75;;;;;;;18.02;78.43;100684.72;6290381;22;20144;-81
2023/08/08 10:54:14;;;;;;;7.72;4.50;;;;;;;17.96;78.09;100674.16;6285198;22;20024;-83
2023/08/08 10:56:41;;;;;;;9.63;4.50;;;;;;;17.98;78.17;100686.16;6290305;22;20126;-82
2023/08/08 10:59:27;;;;;;;8.23;4.65;;;;;;;17.99;77.61;100656.00;6290277;22;20028;-83
2023/08/08 11:01:56;;;;;;;7.65;4.53;;;;;;;18.06;77.19;100656.84;6291470;22;20019;-82
2023/08/08 11:04:25;;;;;;;7.35;4.10;;;;;;;18.22;77.49;100656.41;6295094;22;20015;-81
2023/08/08 11:06:54;;;;;;;8.05;4.55;;;;;;;18.18;77.30;100676.38;6296137;22;20024;-80
2023/08/08 11:09:22;;;;;;;9.00;4.60;;;;;;;17.96;77.10;100679.47;6292575;22;20039;-80
2023/08/08 11:11:50;;;;;;;6.97;4.32;;;;;;;17.99;77.36;100682.50;6295735;22;20019;-82
2023/08/08 11:14:18;;;;;;;10.88;4.25;;;;;;;18.18;76.83;100675.56;6293568;22;20027;-83
2023/08/08 11:16:47;;;;;;;6.75;4.50;;;;;;;18.13;76.26;100662.13;6291478;22;20019;-83
2023/08/08 11:19:19;;;;;;;7.75;4.10;;;;;;;18.02;76.31;100650.31;6293947;22;20270;-84
2023/08/08 11:21:51;;;;;;;7.75;4.57;;;;;;;18.09;75.89;100645.84;6297377;22;20023;-83
2023/08/08 11:24:18;;;;;;;9.65;4.57;;;;;;;18.09;75.80;100637.06;6295488;22;20045;-81
2023/08/08 11:26:47;;;;;;;8.60;4.35;;;;;;;18.16;76.27;100667.84;6293535;22;20026;-80
2023/08/08 11:29:14;;;;;;;8.88;4.30;;;;;;;18.18;76.68;100660.50;6291512;22;20051;-80